sensor_id;sensor_type;location;lat;lon;timestamp;temperature;humidity
9403;DHT22;4741;49.834;10.740;2023-04-03T00:02:25;0.30;99.90
9403;DHT22;4741;49.834;10.740;2023-04-03T00:04:52;0.20;99.90
9403;DHT22;4741;49.834;10.740;2023-04-03T00:07:19;0.20;99.90
9403;DHT22;4741;49.834;10.740;2023-04-03T00:09:46;0.40;99.90
9403;DHT22;4741;49.834;10.740;2023-04-03T00:12:12;0.30;99.90
9403;DHT22;4741;49.834;10.740;2023-04-03T00:14:39;0.30;99.90
9403;DHT22;4741;49.834;10.740;2023-04-03T00:17:06;0.80;99.90
9403;DHT22;4741;49.834;10.740;2023-04-03T00:19:33;0.60;99.90
9403;DHT22;4741;49.834;10.740;2023-04-03T00:22:00;0.70;99.90
9403;DHT22;4741;49.834;10.740;2023-04-03T00:24:28;0.70;99.90
9403;DHT22;4741;49.834;10.740;2023-04-03T00:26:55;0.60;99.90
9403;DHT22;4741;49.834;10.740;2023-04-03T00:29:23;0.60;99.90
9403;DHT22;4741;49.834;10.740;2023-04-03T00:31:50;1.40;99.90
9403;DHT22;4741;49.834;10.740;2023-04-03T00:34:16;0.40;99.90
9403;DHT22;4741;49.834;10.740;2023-04-03T00:36:43;0.30;99.90
9403;DHT22;4741;49.834;10.740;2023-04-03T00:39:10;0.40;99.90
9403;DHT22;4741;49.834;10.740;2023-04-03T00:41:36;0.70;99.90
9403;DHT22;4741;49.834;10.740;2023-04-03T00:44:23;0.70;99.90
9403;DHT22;4741;49.834;10.740;2023-04-03T00:47:11;0.80;99.90
9403;DHT22;4741;49.834;10.740;2023-04-03T00:49:39;0.70;99.90
9403;DHT22;4741;49.834;10.740;2023-04-03T00:52:07;0.60;99.90
9403;DHT22;4741;49.834;10.740;2023-04-03T00:54:36;0.60;99.90
9403;DHT22;4741;49.834;10.740;2023-04-03T00:57:03;0.50;99.90
9403;DHT22;4741;49.834;10.740;2023-04-03T00:59:31;0.60;99.90
9403;DHT22;4741;49.834;10.740;2023-04-03T01:01:59;0.50;99.90
9403;DHT22;4741;49.834;10.740;2023-04-03T01:06:55;0.50;99.90
9403;DHT22;4741;49.834;10.740;2023-04-03T01:09:22;0.60;99.90
9403;DHT22;4741;49.834;10.740;2023-04-03T01:11:49;0.50;99.90
9403;DHT22;4741;49.834;10.740;2023-04-03T01:14:16;0.60;99.90
9403;DHT22;4741;49.834;10.740;2023-04-03T01:16:42;0.60;99.90
9403;DHT22;4741;49.834;10.740;2023-04-03T01:19:11;0.50;99.90
9403;DHT22;4741;49.834;10.740;2023-04-03T01:26:44;0.80;99.90
9403;DHT22;4741;49.834;10.740;2023-04-03T01:29:11;1.00;99.90
9403;DHT22;4741;49.834;10.740;2023-04-03T01:31:45;0.70;99.90
9403;DHT22;4741;49.834;10.740;2023-04-03T01:34:12;0.80;99.90
9403;DHT22;4741;49.834;10.740;2023-04-03T01:36:39;0.80;99.90
9403;DHT22;4741;49.834;10.740;2023-04-03T01:39:06;0.90;99.90
9403;DHT22;4741;49.834;10.740;2023-04-03T01:41:33;0.80;99.90
9403;DHT22;4741;49.834;10.740;2023-04-03T01:44:00;0.70;99.90
9403;DHT22;4741;49.834;10.740;2023-04-03T01:46:27;0.80;99.90
9403;DHT22;4741;49.834;10.740;2023-04-03T01:48:53;0.70;99.90
9403;DHT22;4741;49.834;10.740;2023-04-03T01:51:20;0.70;99.90
9403;DHT22;4741;49.834;10.740;2023-04-03T01:53:47;0.80;99.90
9403;DHT22;4741;49.834;10.740;2023-04-03T01:56:13;1.10;99.90
9403;DHT22;4741;49.834;10.740;2023-04-03T01:58:40;1.10;99.90
9403;DHT22;4741;49.834;10.740;2023-04-03T02:01:07;1.40;99.90
9403;DHT22;4741;49.834;10.740;2023-04-03T02:03:34;1.50;99.90
9403;DHT22;4741;49.834;10.740;2023-04-03T02:06:00;1.40;99.90
9403;DHT22;4741;49.834;10.740;2023-04-03T02:08:27;1.60;99.90
9403;DHT22;4741;49.834;10.740;2023-04-03T02:10:54;1.40;99.90
9403;DHT22;4741;49.834;10.740;2023-04-03T02:13:21;1.50;99.90
9403;DHT22;4741;49.834;10.740;2023-04-03T02:15:47;1.50;99.90
9403;DHT22;4741;49.834;10.740;2023-04-03T02:18:14;2.00;99.90
9403;DHT22;4741;49.834;10.740;2023-04-03T02:20:41;2.00;99.90
9403;DHT22;4741;49.834;10.740;2023-04-03T02:23:08;2.00;99.90
9403;DHT22;4741;49.834;10.740;2023-04-03T02:25:35;2.10;99.90
9403;DHT22;4741;49.834;10.740;2023-04-03T02:28:04;2.10;99.90
9403;DHT22;4741;49.834;10.740;2023-04-03T02:30:31;2.10;99.90
9403;DHT22;4741;49.834;10.740;2023-04-03T02:32:58;2.00;99.90
9403;DHT22;4741;49.834;10.740;2023-04-03T02:35:24;2.10;99.90
9403;DHT22;4741;49.834;10.740;2023-04-03T02:37:51;1.90;99.90
9403;DHT22;4741;49.834;10.740;2023-04-03T02:40:18;2.20;99.90
9403;DHT22;4741;49.834;10.740;2023-04-03T02:42:45;2.30;99.90
9403;DHT22;4741;49.834;10.740;2023-04-03T02:45:12;2.10;99.90
9403;DHT22;4741;49.834;10.740;2023-04-03T02:47:41;2.10;99.90
9403;DHT22;4741;49.834;10.740;2023-04-03T02:50:08;2.20;99.90
9403;DHT22;4741;49.834;10.740;2023-04-03T02:52:35;2.30;99.90
9403;DHT22;4741;49.834;10.740;2023-04-03T02:55:01;2.10;99.90
9403;DHT22;4741;49.834;10.740;2023-04-03T02:57:28;2.20;99.90
9403;DHT22;4741;49.834;10.740;2023-04-03T02:59:55;2.30;99.90
9403;DHT22;4741;49.834;10.740;2023-04-03T03:02:22;2.00;99.90
9403;DHT22;4741;49.834;10.740;2023-04-03T03:04:49;2.00;99.90
9403;DHT22;4741;49.834;10.740;2023-04-03T03:07:16;2.10;99.90
9403;DHT22;4741;49.834;10.740;2023-04-03T03:09:42;2.30;99.90
9403;DHT22;4741;49.834;10.740;2023-04-03T03:12:09;2.20;99.90
9403;DHT22;4741;49.834;10.740;2023-04-03T03:14:36;2.20;99.90
9403;DHT22;4741;49.834;10.740;2023-04-03T03:17:02;2.20;99.90
9403;DHT22;4741;49.834;10.740;2023-04-03T03:19:29;2.30;99.90
9403;DHT22;4741;49.834;10.740;2023-04-03T03:21:56;2.10;99.90
9403;DHT22;4741;49.834;10.740;2023-04-03T03:24:23;2.00;99.90
9403;DHT22;4741;49.834;10.740;2023-04-03T03:26:50;2.30;99.90
9403;DHT22;4741;49.834;10.740;2023-04-03T03:29:16;2.00;99.90
9403;DHT22;4741;49.834;10.740;2023-04-03T03:31:43;1.90;99.90
9403;DHT22;4741;49.834;10.740;2023-04-03T03:34:10;2.20;99.90
9403;DHT22;4741;49.834;10.740;2023-04-03T03:36:36;3.00;99.90
9403;DHT22;4741;49.834;10.740;2023-04-03T03:39:03;2.00;99.90
9403;DHT22;4741;49.834;10.740;2023-04-03T03:41:30;2.10;99.90
9403;DHT22;4741;49.834;10.740;2023-04-03T03:43:57;1.70;99.90
9403;DHT22;4741;49.834;10.740;2023-04-03T03:46:24;2.00;99.90
9403;DHT22;4741;49.834;10.740;2023-04-03T03:48:51;2.00;99.90
9403;DHT22;4741;49.834;10.740;2023-04-03T03:51:17;2.10;99.90
9403;DHT22;4741;49.834;10.740;2023-04-03T03:53:44;1.90;99.90
9403;DHT22;4741;49.834;10.740;2023-04-03T03:56:11;1.50;99.90
9403;DHT22;4741;49.834;10.740;2023-04-03T03:58:37;1.60;99.90
9403;DHT22;4741;49.834;10.740;2023-04-03T04:01:04;1.90;99.90
9403;DHT22;4741;49.834;10.740;2023-04-03T04:03:32;3.50;99.90
9403;DHT22;4741;49.834;10.740;2023-04-03T04:05:59;2.00;99.90
9403;DHT22;4741;49.834;10.740;2023-04-03T04:08:26;1.70;99.90
9403;DHT22;4741;49.834;10.740;2023-04-03T04:10:53;1.70;99.90
9403;DHT22;4741;49.834;10.740;2023-04-03T04:13:19;1.60;99.90
9403;DHT22;4741;49.834;10.740;2023-04-03T04:15:46;1.80;99.90
9403;DHT22;4741;49.834;10.740;2023-04-03T04:18:13;1.60;99.90
9403;DHT22;4741;49.834;10.740;2023-04-03T04:20:39;1.60;99.90
9403;DHT22;4741;49.834;10.740;2023-04-03T04:23:06;1.60;99.90
9403;DHT22;4741;49.834;10.740;2023-04-03T04:25:33;1.80;99.90
9403;DHT22;4741;49.834;10.740;2023-04-03T04:28:00;2.90;99.90
9403;DHT22;4741;49.834;10.740;2023-04-03T04:30:27;1.80;99.90
9403;DHT22;4741;49.834;10.740;2023-04-03T04:32:54;1.80;99.90
9403;DHT22;4741;49.834;10.740;2023-04-03T04:35:20;1.90;99.90
9403;DHT22;4741;49.834;10.740;2023-04-03T04:37:47;1.80;99.90
9403;DHT22;4741;49.834;10.740;2023-04-03T04:40:14;1.60;99.90
9403;DHT22;4741;49.834;10.740;2023-04-03T04:42:41;1.60;99.90
9403;DHT22;4741;49.834;10.740;2023-04-03T04:45:07;1.50;99.90
9403;DHT22;4741;49.834;10.740;2023-04-03T04:47:34;1.50;99.90
9403;DHT22;4741;49.834;10.740;2023-04-03T04:50:01;2.40;99.90
9403;DHT22;4741;49.834;10.740;2023-04-03T04:52:28;1.30;99.90
9403;DHT22;4741;49.834;10.740;2023-04-03T04:54:54;1.20;99.90
9403;DHT22;4741;49.834;10.740;2023-04-03T04:57:21;1.30;99.90
9403;DHT22;4741;49.834;10.740;2023-04-03T04:59:48;1.30;99.90
9403;DHT22;4741;49.834;10.740;2023-04-03T05:02:14;1.40;99.90
9403;DHT22;4741;49.834;10.740;2023-04-03T05:04:41;1.80;99.90
9403;DHT22;4741;49.834;10.740;2023-04-03T05:07:08;1.20;99.90
9403;DHT22;4741;49.834;10.740;2023-04-03T05:09:35;1.20;99.90
9403;DHT22;4741;49.834;10.740;2023-04-03T05:12:01;1.30;99.90
9403;DHT22;4741;49.834;10.740;2023-04-03T05:14:29;1.20;99.90
9403;DHT22;4741;49.834;10.740;2023-04-03T05:16:56;1.10;99.90
9403;DHT22;4741;49.834;10.740;2023-04-03T05:19:24;1.10;99.90
9403;DHT22;4741;49.834;10.740;2023-04-03T05:21:50;1.20;99.90
9403;DHT22;4741;49.834;10.740;2023-04-03T05:24:20;1.30;99.90
9403;DHT22;4741;49.834;10.740;2023-04-03T05:26:46;1.20;99.90
9403;DHT22;4741;49.834;10.740;2023-04-03T05:29:13;1.10;99.90
9403;DHT22;4741;49.834;10.740;2023-04-03T05:31:40;1.20;99.90
9403;DHT22;4741;49.834;10.740;2023-04-03T05:34:06;1.10;99.90
9403;DHT22;4741;49.834;10.740;2023-04-03T05:36:33;1.30;99.90
9403;DHT22;4741;49.834;10.740;2023-04-03T05:39:00;1.30;99.90
9403;DHT22;4741;49.834;10.740;2023-04-03T05:41:27;1.30;99.90
9403;DHT22;4741;49.834;10.740;2023-04-03T05:43:53;1.10;99.90
9403;DHT22;4741;49.834;10.740;2023-04-03T05:46:20;2.10;99.90
9403;DHT22;4741;49.834;10.740;2023-04-03T05:48:47;1.30;99.90
9403;DHT22;4741;49.834;10.740;2023-04-03T05:51:18;2.40;99.90
9403;DHT22;4741;49.834;10.740;2023-04-03T05:53:45;1.90;99.90
9403;DHT22;4741;49.834;10.740;2023-04-03T05:56:12;1.20;99.90
9403;DHT22;4741;49.834;10.740;2023-04-03T05:58:39;1.50;99.90
9403;DHT22;4741;49.834;10.740;2023-04-03T06:01:06;2.50;99.90
9403;DHT22;4741;49.834;10.740;2023-04-03T06:03:33;1.70;99.90
9403;DHT22;4741;49.834;10.740;2023-04-03T06:06:02;1.70;99.90
9403;DHT22;4741;49.834;10.740;2023-04-03T06:08:29;1.90;99.90
9403;DHT22;4741;49.834;10.740;2023-04-03T06:10:56;2.00;99.90
9403;DHT22;4741;49.834;10.740;2023-04-03T06:13:23;2.00;99.90
9403;DHT22;4741;49.834;10.740;2023-04-03T06:15:50;2.00;99.90
9403;DHT22;4741;49.834;10.740;2023-04-03T06:18:16;1.90;99.90
9403;DHT22;4741;49.834;10.740;2023-04-03T06:20:43;1.80;99.90
9403;DHT22;4741;49.834;10.740;2023-04-03T06:23:10;2.10;99.90
9403;DHT22;4741;49.834;10.740;2023-04-03T06:25:36;2.10;99.90
9403;DHT22;4741;49.834;10.740;2023-04-03T06:28:03;2.20;99.90
9403;DHT22;4741;49.834;10.740;2023-04-03T06:30:30;3.70;99.90
9403;DHT22;4741;49.834;10.740;2023-04-03T06:32:57;1.90;99.90
9403;DHT22;4741;49.834;10.740;2023-04-03T06:35:23;2.30;99.90
9403;DHT22;4741;49.834;10.740;2023-04-03T06:40:21;2.40;99.90
9403;DHT22;4741;49.834;10.740;2023-04-03T06:42:48;2.50;99.90
9403;DHT22;4741;49.834;10.740;2023-04-03T06:45:15;2.10;99.90
9403;DHT22;4741;49.834;10.740;2023-04-03T06:50:10;2.60;99.90
9403;DHT22;4741;49.834;10.740;2023-04-03T06:52:38;2.50;99.90
9403;DHT22;4741;49.834;10.740;2023-04-03T06:55:06;2.60;99.90
9403;DHT22;4741;49.834;10.740;2023-04-03T06:57:33;2.70;99.90
9403;DHT22;4741;49.834;10.740;2023-04-03T07:00:00;2.50;99.90
9403;DHT22;4741;49.834;10.740;2023-04-03T07:02:27;2.20;99.90
9403;DHT22;4741;49.834;10.740;2023-04-03T07:04:53;2.40;99.90
9403;DHT22;4741;49.834;10.740;2023-04-03T07:07:20;2.10;99.90
9403;DHT22;4741;49.834;10.740;2023-04-03T07:09:47;3.70;99.90
9403;DHT22;4741;49.834;10.740;2023-04-03T07:12:15;4.20;99.90
9403;DHT22;4741;49.834;10.740;2023-04-03T07:22:04;4.00;99.90
9403;DHT22;4741;49.834;10.740;2023-04-03T07:24:31;3.80;99.90
9403;DHT22;4741;49.834;10.740;2023-04-03T07:31:54;4.50;99.90
9403;DHT22;4741;49.834;10.740;2023-04-03T07:34:22;4.00;99.90
9403;DHT22;4741;49.834;10.740;2023-04-03T07:36:49;4.20;99.90
9403;DHT22;4741;49.834;10.740;2023-04-03T07:39:15;4.00;99.90
9403;DHT22;4741;49.834;10.740;2023-04-03T07:41:42;3.80;99.90
9403;DHT22;4741;49.834;10.740;2023-04-03T07:44:09;3.20;99.90
9403;DHT22;4741;49.834;10.740;2023-04-03T07:46:39;3.50;99.90
9403;DHT22;4741;49.834;10.740;2023-04-03T07:49:07;2.90;99.90
9403;DHT22;4741;49.834;10.740;2023-04-03T07:51:33;3.90;99.90
9403;DHT22;4741;49.834;10.740;2023-04-03T07:58:55;5.00;99.90
9403;DHT22;4741;49.834;10.740;2023-04-03T08:01:22;5.60;99.90
9403;DHT22;4741;49.834;10.740;2023-04-03T08:11:18;5.40;99.90
9403;DHT22;4741;49.834;10.740;2023-04-03T08:16:18;5.40;99.90
9403;DHT22;4741;49.834;10.740;2023-04-03T08:18:46;5.60;99.90
9403;DHT22;4741;49.834;10.740;2023-04-03T08:21:13;4.80;99.90
9403;DHT22;4741;49.834;10.740;2023-04-03T08:26:11;6.00;99.90
9403;DHT22;4741;49.834;10.740;2023-04-03T08:28:38;5.40;99.90
9403;DHT22;4741;49.834;10.740;2023-04-03T08:33:34;6.10;99.90
9403;DHT22;4741;49.834;10.740;2023-04-03T08:36:05;6.10;99.90
9403;DHT22;4741;49.834;10.740;2023-04-03T08:41:17;6.50;99.90
9403;DHT22;4741;49.834;10.740;2023-04-03T08:46:23;6.90;99.90
9403;DHT22;4741;49.834;10.740;2023-04-03T08:48:53;7.00;99.90
9403;DHT22;4741;49.834;10.740;2023-04-03T08:51:20;7.10;99.90
9403;DHT22;4741;49.834;10.740;2023-04-03T08:53:55;8.20;99.90
9403;DHT22;4741;49.834;10.740;2023-04-03T08:56:23;7.40;99.90
9403;DHT22;4741;49.834;10.740;2023-04-03T08:58:52;8.50;99.90
9403;DHT22;4741;49.834;10.740;2023-04-03T09:01:35;8.60;99.90
9403;DHT22;4741;49.834;10.740;2023-04-03T09:04:05;9.20;99.90
9403;DHT22;4741;49.834;10.740;2023-04-03T09:06:36;7.40;99.90
9403;DHT22;4741;49.834;10.740;2023-04-03T09:09:27;8.00;99.90
9403;DHT22;4741;49.834;10.740;2023-04-03T09:12:02;7.20;99.90
9403;DHT22;4741;49.834;10.740;2023-04-03T09:14:39;7.20;99.90
9403;DHT22;4741;49.834;10.740;2023-04-03T09:19:57;6.90;99.90
9403;DHT22;4741;49.834;10.740;2023-04-03T09:22:25;6.80;99.90
9403;DHT22;4741;49.834;10.740;2023-04-03T09:25:15;6.80;99.90
9403;DHT22;4741;49.834;10.740;2023-04-03T09:30:20;6.20;99.90
9403;DHT22;4741;49.834;10.740;2023-04-03T09:32:48;6.50;99.90
9403;DHT22;4741;49.834;10.740;2023-04-03T09:37:52;7.90;99.90
9403;DHT22;4741;49.834;10.740;2023-04-03T09:42:53;6.80;99.90
9403;DHT22;4741;49.834;10.740;2023-04-03T09:45:28;7.90;99.90
9403;DHT22;4741;49.834;10.740;2023-04-03T09:50:24;7.60;99.90
9403;DHT22;4741;49.834;10.740;2023-04-03T09:52:51;8.00;99.90
9403;DHT22;4741;49.834;10.740;2023-04-03T09:57:45;8.30;99.90
9403;DHT22;4741;49.834;10.740;2023-04-03T10:00:23;7.00;99.90
9403;DHT22;4741;49.834;10.740;2023-04-03T10:02:51;8.00;99.90
9403;DHT22;4741;49.834;10.740;2023-04-03T10:05:26;6.70;99.90
9403;DHT22;4741;49.834;10.740;2023-04-03T10:08:36;8.20;99.90
9403;DHT22;4741;49.834;10.740;2023-04-03T10:10:45;8.10;99.90
9403;DHT22;4741;49.834;10.740;2023-04-03T10:15:59;7.60;99.90
9403;DHT22;4741;49.834;10.740;2023-04-03T10:26:32;7.60;99.90
9403;DHT22;4741;49.834;10.740;2023-04-03T10:47:02;9.70;99.90
9403;DHT22;4741;49.834;10.740;2023-04-03T10:49:45;10.30;99.90
9403;DHT22;4741;49.834;10.740;2023-04-03T10:57:19;10.80;99.90
9403;DHT22;4741;49.834;10.740;2023-04-03T11:02:26;10.40;99.90
9403;DHT22;4741;49.834;10.740;2023-04-03T11:05:06;10.90;99.90
9403;DHT22;4741;49.834;10.740;2023-04-03T11:07:40;10.80;99.90
9403;DHT22;4741;49.834;10.740;2023-04-03T11:10:17;11.10;99.90
9403;DHT22;4741;49.834;10.740;2023-04-03T11:12:51;11.20;99.90
9403;DHT22;4741;49.834;10.740;2023-04-03T11:20:25;12.10;99.90
9403;DHT22;4741;49.834;10.740;2023-04-03T11:25:21;12.20;99.90
9403;DHT22;4741;49.834;10.740;2023-04-03T11:33:29;12.10;99.90
9403;DHT22;4741;49.834;10.740;2023-04-03T11:35:36;11.80;96.90
9403;DHT22;4741;49.834;10.740;2023-04-03T11:38:04;12.40;98.50
9403;DHT22;4741;49.834;10.740;2023-04-03T11:40:35;13.50;98.70
9403;DHT22;4741;49.834;10.740;2023-04-03T11:43:15;13.40;96.70
9403;DHT22;4741;49.834;10.740;2023-04-03T11:45:50;12.50;97.70
9403;DHT22;4741;49.834;10.740;2023-04-03T11:50:51;14.20;98.10
9403;DHT22;4741;49.834;10.740;2023-04-03T11:53:25;14.20;99.90
9403;DHT22;4741;49.834;10.740;2023-04-03T11:58:35;14.40;99.90
9403;DHT22;4741;49.834;10.740;2023-04-03T12:01:07;14.70;92.60
9403;DHT22;4741;49.834;10.740;2023-04-03T12:03:55;14.50;92.90
9403;DHT22;4741;49.834;10.740;2023-04-03T12:09:04;14.00;92.50
9403;DHT22;4741;49.834;10.740;2023-04-03T12:11:48;13.70;99.50
9403;DHT22;4741;49.834;10.740;2023-04-03T12:14:17;12.10;91.70
9403;DHT22;4741;49.834;10.740;2023-04-03T12:16:49;12.70;92.50
9403;DHT22;4741;49.834;10.740;2023-04-03T12:22:09;14.60;91.90
9403;DHT22;4741;49.834;10.740;2023-04-03T12:24:38;14.80;91.70
9403;DHT22;4741;49.834;10.740;2023-04-03T12:27:14;15.40;90.20
9403;DHT22;4741;49.834;10.740;2023-04-03T12:29:48;14.70;92.40
9403;DHT22;4741;49.834;10.740;2023-04-03T12:34:55;15.90;89.60
9403;DHT22;4741;49.834;10.740;2023-04-03T12:47:41;15.70;83.70
9403;DHT22;4741;49.834;10.740;2023-04-03T12:50:18;16.50;81.00
9403;DHT22;4741;49.834;10.740;2023-04-03T12:53:05;16.40;79.60
9403;DHT22;4741;49.834;10.740;2023-04-03T12:55:32;16.70;78.80
9403;DHT22;4741;49.834;10.740;2023-04-03T13:00:42;15.90;79.50
9403;DHT22;4741;49.834;10.740;2023-04-03T13:03:25;17.40;75.00
9403;DHT22;4741;49.834;10.740;2023-04-03T13:05:59;17.40;75.30
9403;DHT22;4741;49.834;10.740;2023-04-03T13:08:25;16.60;75.00
9403;DHT22;4741;49.834;10.740;2023-04-03T13:13:20;16.30;69.20
9403;DHT22;4741;49.834;10.740;2023-04-03T13:15:47;16.80;72.70
9403;DHT22;4741;49.834;10.740;2023-04-03T13:18:31;17.10;74.60
9403;DHT22;4741;49.834;10.740;2023-04-03T13:21:13;16.90;69.10
9403;DHT22;4741;49.834;10.740;2023-04-03T13:24:00;16.90;71.80
9403;DHT22;4741;49.834;10.740;2023-04-03T13:26:41;17.60;67.30
9403;DHT22;4741;49.834;10.740;2023-04-03T13:29:17;18.00;69.70
9403;DHT22;4741;49.834;10.740;2023-04-03T13:31:56;18.60;69.80
9403;DHT22;4741;49.834;10.740;2023-04-03T13:34:25;17.80;71.30
9403;DHT22;4741;49.834;10.740;2023-04-03T13:39:22;18.30;73.40
9403;DHT22;4741;49.834;10.740;2023-04-03T13:42:23;16.60;66.30
9403;DHT22;4741;49.834;10.740;2023-04-03T13:44:42;18.10;66.10
9403;DHT22;4741;49.834;10.740;2023-04-03T13:49:45;19.20;66.30
9403;DHT22;4741;49.834;10.740;2023-04-03T13:52:24;20.60;68.00
9403;DHT22;4741;49.834;10.740;2023-04-03T13:54:56;19.60;65.00
9403;DHT22;4741;49.834;10.740;2023-04-03T13:57:23;17.30;63.10
9403;DHT22;4741;49.834;10.740;2023-04-03T13:59:51;17.60;65.90
9403;DHT22;4741;49.834;10.740;2023-04-03T14:02:39;19.00;63.90
9403;DHT22;4741;49.834;10.740;2023-04-03T14:05:06;18.60;61.80
9403;DHT22;4741;49.834;10.740;2023-04-03T14:07:34;18.70;62.90
9403;DHT22;4741;49.834;10.740;2023-04-03T14:10:01;18.00;64.20
9403;DHT22;4741;49.834;10.740;2023-04-03T14:14:58;15.30;60.70
9403;DHT22;4741;49.834;10.740;2023-04-03T14:17:26;17.00;73.80
9403;DHT22;4741;49.834;10.740;2023-04-03T14:20:02;15.60;66.30
9403;DHT22;4741;49.834;10.740;2023-04-03T14:24:57;16.30;63.30
9403;DHT22;4741;49.834;10.740;2023-04-03T14:29:55;18.30;62.30
9403;DHT22;4741;49.834;10.740;2023-04-03T14:34:54;19.00;66.90
9403;DHT22;4741;49.834;10.740;2023-04-03T14:37:23;18.20;61.90
9403;DHT22;4741;49.834;10.740;2023-04-03T14:39:50;16.30;62.80
9403;DHT22;4741;49.834;10.740;2023-04-03T14:42:19;16.30;64.20
9403;DHT22;4741;49.834;10.740;2023-04-03T14:44:46;18.50;62.50
9403;DHT22;4741;49.834;10.740;2023-04-03T14:50:04;17.70;59.70
9403;DHT22;4741;49.834;10.740;2023-04-03T14:55:06;18.60;58.60
9403;DHT22;4741;49.834;10.740;2023-04-03T14:57:33;19.50;59.10
9403;DHT22;4741;49.834;10.740;2023-04-03T15:00:04;19.90;56.10
9403;DHT22;4741;49.834;10.740;2023-04-03T15:05:00;20.00;55.90
9403;DHT22;4741;49.834;10.740;2023-04-03T15:12:26;15.70;57.10
9403;DHT22;4741;49.834;10.740;2023-04-03T15:14:55;16.90;57.80
9403;DHT22;4741;49.834;10.740;2023-04-03T15:17:28;16.20;57.60
9403;DHT22;4741;49.834;10.740;2023-04-03T15:20:05;18.10;59.20
9403;DHT22;4741;49.834;10.740;2023-04-03T15:27:33;13.40;57.80
9403;DHT22;4741;49.834;10.740;2023-04-03T15:32:30;11.20;63.40
9403;DHT22;4741;49.834;10.740;2023-04-03T15:34:58;13.60;64.80
9403;DHT22;4741;49.834;10.740;2023-04-03T15:37:25;15.20;60.70
9403;DHT22;4741;49.834;10.740;2023-04-03T15:42:20;16.20;58.90
9403;DHT22;4741;49.834;10.740;2023-04-03T15:44:47;15.80;60.10
9403;DHT22;4741;49.834;10.740;2023-04-03T15:47:13;16.70;62.10
9403;DHT22;4741;49.834;10.740;2023-04-03T15:52:07;16.20;58.20
9403;DHT22;4741;49.834;10.740;2023-04-03T16:07:54;11.30;83.00
9403;DHT22;4741;49.834;10.740;2023-04-03T16:10:21;11.30;75.90
9403;DHT22;4741;49.834;10.740;2023-04-03T16:12:50;13.20;64.80
9403;DHT22;4741;49.834;10.740;2023-04-03T16:15:17;14.60;63.40
9403;DHT22;4741;49.834;10.740;2023-04-03T16:17:43;15.10;62.50
9403;DHT22;4741;49.834;10.740;2023-04-03T16:20:24;15.70;61.40
9403;DHT22;4741;49.834;10.740;2023-04-03T16:22:51;15.60;59.80
9403;DHT22;4741;49.834;10.740;2023-04-03T16:25:18;17.10;61.00
9403;DHT22;4741;49.834;10.740;2023-04-03T16:27:46;15.60;61.50
9403;DHT22;4741;49.834;10.740;2023-04-03T16:30:13;15.80;63.00
9403;DHT22;4741;49.834;10.740;2023-04-03T16:42:35;9.80;99.90
9403;DHT22;4741;49.834;10.740;2023-04-03T16:49:58;7.90;90.30
9403;DHT22;4741;49.834;10.740;2023-04-03T18:18:56;3.90;91.40
9403;DHT22;4741;49.834;10.740;2023-04-03T18:21:43;3.80;92.20
9403;DHT22;4741;49.834;10.740;2023-04-03T18:24:12;4.20;93.20
9403;DHT22;4741;49.834;10.740;2023-04-03T18:26:53;3.60;93.20
9403;DHT22;4741;49.834;10.740;2023-04-03T18:31:49;3.50;92.60
9403;DHT22;4741;49.834;10.740;2023-04-03T18:34:20;4.50;93.40
9403;DHT22;4741;49.834;10.740;2023-04-03T18:36:46;3.20;93.30
9403;DHT22;4741;49.834;10.740;2023-04-03T18:42:08;3.40;94.50
9403;DHT22;4741;49.834;10.740;2023-04-03T18:47:10;3.30;93.90
9403;DHT22;4741;49.834;10.740;2023-04-03T18:49:45;4.10;95.00
9403;DHT22;4741;49.834;10.740;2023-04-03T18:52:12;4.00;95.60
9403;DHT22;4741;49.834;10.740;2023-04-03T18:54:39;4.00;95.40
9403;DHT22;4741;49.834;10.740;2023-04-03T18:57:08;2.70;95.20
9403;DHT22;4741;49.834;10.740;2023-04-03T18:59:42;4.30;96.20
9403;DHT22;4741;49.834;10.740;2023-04-03T19:02:15;3.70;95.80
9403;DHT22;4741;49.834;10.740;2023-04-03T19:07:14;3.00;95.80
9403;DHT22;4741;49.834;10.740;2023-04-03T19:09:51;3.70;97.10
9403;DHT22;4741;49.834;10.740;2023-04-03T19:14:47;2.70;96.20
9403;DHT22;4741;49.834;10.740;2023-04-03T19:17:14;2.70;95.80
9403;DHT22;4741;49.834;10.740;2023-04-03T19:19:41;2.80;96.10
9403;DHT22;4741;49.834;10.740;2023-04-03T19:22:07;2.50;96.10
9403;DHT22;4741;49.834;10.740;2023-04-03T19:24:34;2.50;96.20
9403;DHT22;4741;49.834;10.740;2023-04-03T19:27:02;2.70;97.20
9403;DHT22;4741;49.834;10.740;2023-04-03T19:29:29;3.40;97.30
9403;DHT22;4741;49.834;10.740;2023-04-03T19:31:56;3.60;97.90
9403;DHT22;4741;49.834;10.740;2023-04-03T19:34:23;2.40;97.20
9403;DHT22;4741;49.834;10.740;2023-04-03T19:36:49;2.40;97.00
9403;DHT22;4741;49.834;10.740;2023-04-03T19:39:17;3.70;98.40
9403;DHT22;4741;49.834;10.740;2023-04-03T19:41:44;2.00;98.40
9403;DHT22;4741;49.834;10.740;2023-04-03T19:44:11;2.30;98.20
9403;DHT22;4741;49.834;10.740;2023-04-03T19:46:38;2.00;98.20
9403;DHT22;4741;49.834;10.740;2023-04-03T19:49:17;2.70;99.00
9403;DHT22;4741;49.834;10.740;2023-04-03T19:51:44;2.10;98.70
9403;DHT22;4741;49.834;10.740;2023-04-03T19:54:10;2.30;99.40
9403;DHT22;4741;49.834;10.740;2023-04-03T19:56:37;2.00;98.50
9403;DHT22;4741;49.834;10.740;2023-04-03T19:59:07;2.90;99.70
9403;DHT22;4741;49.834;10.740;2023-04-03T20:01:33;3.00;99.10
9403;DHT22;4741;49.834;10.740;2023-04-03T20:04:00;2.30;98.30
9403;DHT22;4741;49.834;10.740;2023-04-03T20:06:28;2.20;98.40
9403;DHT22;4741;49.834;10.740;2023-04-03T20:08:54;2.90;98.60
9403;DHT22;4741;49.834;10.740;2023-04-03T20:11:22;2.10;98.30
9403;DHT22;4741;49.834;10.740;2023-04-03T20:13:49;2.00;98.30
9403;DHT22;4741;49.834;10.740;2023-04-03T20:16:16;1.90;98.10
9403;DHT22;4741;49.834;10.740;2023-04-03T20:18:44;2.00;98.10
9403;DHT22;4741;49.834;10.740;2023-04-03T20:21:15;2.70;98.30
9403;DHT22;4741;49.834;10.740;2023-04-03T20:23:44;2.50;98.00
9403;DHT22;4741;49.834;10.740;2023-04-03T20:26:20;1.60;97.60
9403;DHT22;4741;49.834;10.740;2023-04-03T20:28:49;2.10;98.00
9403;DHT22;4741;49.834;10.740;2023-04-03T20:31:16;1.80;98.10
9403;DHT22;4741;49.834;10.740;2023-04-03T20:33:43;2.00;99.10
9403;DHT22;4741;49.834;10.740;2023-04-03T20:36:10;2.00;98.50
9403;DHT22;4741;49.834;10.740;2023-04-03T20:38:37;1.90;99.10
9403;DHT22;4741;49.834;10.740;2023-04-03T20:41:15;2.90;99.90
9403;DHT22;4741;49.834;10.740;2023-04-03T20:43:42;1.60;99.20
9403;DHT22;4741;49.834;10.740;2023-04-03T20:46:09;2.90;99.90
9403;DHT22;4741;49.834;10.740;2023-04-03T20:48:39;2.40;99.90
9403;DHT22;4741;49.834;10.740;2023-04-03T20:53:34;1.60;99.90
9403;DHT22;4741;49.834;10.740;2023-04-03T20:56:00;1.20;99.90
9403;DHT22;4741;49.834;10.740;2023-04-03T21:00:59;1.50;99.90
9403;DHT22;4741;49.834;10.740;2023-04-03T21:03:26;2.60;99.90
9403;DHT22;4741;49.834;10.740;2023-04-03T21:19:13;1.50;99.90
9403;DHT22;4741;49.834;10.740;2023-04-03T21:21:41;1.90;99.90
9403;DHT22;4741;49.834;10.740;2023-04-03T21:24:12;1.20;99.90
9403;DHT22;4741;49.834;10.740;2023-04-03T21:26:42;2.20;99.90
9403;DHT22;4741;49.834;10.740;2023-04-03T21:29:11;1.10;99.90
9403;DHT22;4741;49.834;10.740;2023-04-03T21:31:47;1.20;99.90
9403;DHT22;4741;49.834;10.740;2023-04-03T21:34:18;1.50;99.90
9403;DHT22;4741;49.834;10.740;2023-04-03T21:36:45;1.50;99.90
9403;DHT22;4741;49.834;10.740;2023-04-03T21:39:18;1.30;99.90